Flight Track Log - Related Links

Times and Time Zones

All times are in EDT time to prevent confusion due to time zone crossing. See the AWE1910 flight status page for this flight to view local times or setup timezone preferences in your user account.

Time Position Orientation Groundspeed Altitude Reporting Facility
EDT Latitude Longitude Course Direction KTS MPH feet Rate Location/Type
Thu 10:22:11 AM 35.1760 -80.9320 176° South 182 209 2,500  Level FlightAware ADS-B
Thu 10:22:25 AM 35.1630 -80.9300 173° South 203 234 2,700 923 Climbing FlightAware ADS-B
Thu 10:22:37 AM 35.1520 -80.9240 156° South 228 262 2,900 1,000 Climbing FlightAware ADS-B
Thu 10:22:49 AM 35.1440 -80.9110 127° Southeast 250 288 3,100 1,263 Climbing FlightAware ADS-B
Thu 10:23:15 AM 35.1320 -80.8750 112° Southeast 283 326 3,700 2,172 Climbing FlightAware ADS-B
Thu 10:23:47 AM 35.1170 -80.8240 110° East 291 335 5,200 2,640 Climbing FlightAware ADS-B
Thu 10:24:05 AM 35.1110 -80.7960 105° East 298 343 5,900 2,478 Climbing FlightAware ADS-B
Thu 10:24:33 AM 35.1150 -80.7480 84° East 301 346 7,100 2,500 Climbing FlightAware ADS-B
Thu 10:24:53 AM 35.1200 -80.7190 78° East 303 349 7,900 2,684 Climbing FlightAware ADS-B
Thu 10:25:11 AM 35.1350 -80.6890 59° Northeast 303 349 8,800 2,769 Climbing FlightAware ADS-B
Thu 10:25:19 AM 35.1420 -80.6770 54° Northeast 304 350 9,100 2,000 Climbing FlightAware ADS-B
Thu 10:26:05 AM 35.1790 -80.6100 56° Northeast 326 375 10,600 1,421 Climbing FlightAware ADS-B
Thu 10:27:13 AM 35.2430 -80.4960 55° Northeast 391 450 11,800 1,500 Climbing FlightAware ADS-B
Thu 10:28:09 AM 35.3020 -80.3890 56° Northeast 409 471 13,700 2,094 Climbing FlightAware ADS-B
Thu 10:28:59 AM 35.3550 -80.2940 56° Northeast 407 468 15,500 1,933 Climbing FlightAware ADS-B
Thu 10:29:39 AM 35.3960 -80.2200 56° Northeast 414 476 16,600 1,541 Climbing FlightAware ADS-B
Thu 10:31:27 AM 35.4750 -79.9800 68° East 434 499 19,300 1,459 Climbing FlightAware ADS-B
Thu 10:32:07 AM 35.5000 -79.8830 72° East 442 509 20,200 1,308 Climbing FlightAware ADS-B
Thu 10:32:45 AM 35.5240 -79.7880 73° East 451 519 21,000 1,176 Climbing FlightAware ADS-B
Thu 10:33:49 AM 35.5630 -79.6330 73° East 460 529 22,200 1,212 Climbing FlightAware ADS-B
Thu 10:34:24 AM 35.5850 -79.5450 73° East 464 534 23,000 1,129 Climbing FlightAware ADS-B
Thu 10:35:14 AM 35.6200 -79.4180 71° East 470 541 23,800 1,129 Climbing FlightAware ADS-B
Thu 10:35:49 AM 35.6530 -79.3340 64° Northeast 472 543 24,600 1,200 Climbing FlightAware ADS-B
Thu 10:36:34 AM 35.6970 -79.2250 64° Northeast 475 547 25,400 933 Climbing FlightAware ADS-B
Thu 10:37:19 AM 35.7410 -79.1150 64° Northeast 483 556 26,000 825 Climbing FlightAware ADS-B
Thu 10:37:54 AM 35.7760 -79.0270 64° Northeast 487 560 26,500 900 Climbing FlightAware ADS-B
Thu 10:38:39 AM 35.8210 -78.9140 64° Northeast 487 560 27,200 988 Climbing FlightAware ADS-B
Thu 10:39:19 AM 35.8650 -78.8160 61° Northeast 486 559 27,900 1,186 Climbing FlightAware ADS-B
Thu 10:40:05 AM 35.9360 -78.7280 45° Northeast 480 552 28,900 1,263 Climbing FlightAware ADS-B
Thu 10:40:54 AM 36.0240 -78.6510 35° Northeast 475 547 29,900 1,163 Climbing FlightAware ADS-B
Thu 10:41:43 AM 36.1200 -78.5670 35° Northeast 480 552 30,800 733 Climbing FlightAware ADS-B
Thu 10:42:24 AM 36.1910 -78.5040 36° Northeast 475 547 31,000 138 Climbing FlightAware ADS-B
Thu 10:43:10 AM 36.2740 -78.4300 36° Northeast 475 547 31,000  Level FlightAware ADS-B
Thu 10:43:50 AM 36.3480 -78.3650 35° Northeast 478 550 31,000  Level FlightAware ADS-B
Thu 10:44:26 AM 36.4120 -78.3070 36° Northeast 477 549 31,000  Level FlightAware ADS-B
Thu 10:45:24 AM 36.5160 -78.2150 35° Northeast 476 548 31,000  Level FlightAware ADS-B
Thu 10:48:38 AM 36.8180 -77.9180 38° Northeast 470 541 31,000  Level FlightAware ADS-B
Thu 10:49:28 AM 36.9300 -77.8040 39° Northeast 472 543 31,000  Level FlightAware ADS-B
Thu 10:50:02 AM 36.9880 -77.7440 40° Northeast 472 543 31,000  Level FlightAware ADS-B
Thu 10:50:44 AM 37.0620 -77.6700 39° Northeast 473 544 31,000 67 Level FlightAware ADS-B
Thu 10:51:31 AM 37.1410 -77.5890 39° Northeast 473 544 31,100  Climbing FlightAware ADS-B
Thu 10:52:11 AM 37.2090 -77.5200 39° Northeast 471 542 31,000 -70 Descending FlightAware ADS-B
Thu 10:52:57 AM 37.2870 -77.4410 39° Northeast 469 540 31,000  Level FlightAware ADS-B
Thu 10:53:41 AM 37.3620 -77.3640 39° Northeast 471 542 31,000  Level FlightAware ADS-B
Thu 10:54:13 AM 37.4150 -77.3100 39° Northeast 471 542 31,000  Level FlightAware ADS-B
Thu 10:54:57 AM 37.4900 -77.2330 39° Northeast 472 543 31,000  Level FlightAware ADS-B
Thu 10:55:53 AM 37.5810 -77.1390 39° Northeast 470 541 31,000  Level FlightAware ADS-B
Thu 10:56:41 AM 37.6650 -77.0520 39° Northeast 470 541 31,000  Level FlightAware ADS-B
Thu 10:57:23 AM 37.7350 -76.9800 39° Northeast 469 540 31,000  Level FlightAware ADS-B
Thu 10:58:07 AM 37.8090 -76.9020 40° Northeast 470 541 31,000  Level FlightAware ADS-B
Thu 10:58:43 AM 37.8700 -76.8390 39° Northeast 470 541 31,000  Level FlightAware ADS-B
Thu 10:59:13 AM 37.9200 -76.7860 40° Northeast 471 542 31,000  Level FlightAware ADS-B
Thu 10:59:57 AM 37.9920 -76.7110 39° Northeast 470 541 31,000  Level FlightAware ADS-B
Thu 11:00:33 AM 38.0410 -76.6600 39° Northeast 470 541 31,000  Level FlightAware ADS-B
Thu 11:01:31 AM 38.1420 -76.5540 40° Northeast 471 542 31,000  Level FlightAware ADS-B
Thu 11:02:13 AM 38.2080 -76.4850 39° Northeast 472 543 31,000  Level FlightAware ADS-B
Thu 11:02:57 AM 38.2960 -76.3930 39° Northeast 471 542 31,000  Level FlightAware ADS-B
Thu 11:03:41 AM 38.3740 -76.3200 36° Northeast 471 542 31,000  Level FlightAware ADS-B
Thu 11:04:19 AM 38.4430 -76.2570 36° Northeast 471 542 31,000  Level FlightAware ADS-B
Thu 11:05:05 AM 38.5220 -76.1840 36° Northeast 470 541 31,000  Level FlightAware ADS-B
Thu 11:05:47 AM 38.5980 -76.1130 36° Northeast 470 541 31,000 -128 Level FlightAware ADS-B
Thu 11:06:39 AM 38.6880 -76.0280 36° Northeast 470 541 30,800 -600 Descending FlightAware ADS-B
Thu 11:07:27 AM 38.7710 -75.9510 36° Northeast 474 545 30,000 -1,091 Descending FlightAware ADS-B
Thu 11:08:07 AM 38.8420 -75.8850 36° Northeast 474 545 29,200 -1,780 Descending FlightAware ADS-B
Thu 11:08:58 AM 38.9320 -75.8000 36° Northeast 461 531 27,300 -1,361 Descending FlightAware ADS-B
Thu 11:09:44 AM 39.0120 -75.7250 36° Northeast 468 539 27,000 -857 Descending FlightAware ADS-B
Thu 11:10:29 AM 39.0910 -75.6490 37° Northeast 460 529 26,000 -1,102 Descending FlightAware ADS-B
Thu 11:12:11 AM 39.2530 -75.4970 36° Northeast 456 525 24,300 -833 Descending FlightAware ADS-B
Thu 11:12:53 AM 39.3450 -75.4160 34° Northeast 457 526 24,000 -527 Descending FlightAware ADS-B
Thu 11:13:42 AM 39.4100 -75.3570 35° Northeast 456 525 23,500 -2,400 Descending FlightAware ADS-B
Thu 11:14:23 AM 39.4980 -75.2790 34° Northeast 444 511 20,400 -3,030 Descending FlightAware ADS-B
Thu 11:15:21 AM 39.5960 -75.1880 36° Northeast 430 495 18,500 -1,765 Descending FlightAware ADS-B
Thu 11:16:05 AM 39.6650 -75.1220 36° Northeast 409 471 17,400 -1,465 Descending FlightAware ADS-B
Thu 11:16:47 AM 39.7300 -75.0660 34° Northeast 404 465 16,400 -1,390 Descending FlightAware ADS-B
Thu 11:17:27 AM 39.7930 -75.0120 33° Northeast 400 460 15,500 -1,429 Descending FlightAware ADS-B
Thu 11:18:11 AM 39.8600 -74.9540 34° Northeast 392 451 14,400 -1,429 Descending FlightAware ADS-B
Thu 11:18:51 AM 39.9190 -74.8990 36° Northeast 390 449 13,500 -1,390 Descending FlightAware ADS-B
Thu 11:19:33 AM 39.9700 -74.8280 47° Northeast 386 444 12,500 -1,350 Descending FlightAware ADS-B
Thu 11:20:11 AM 40.0160 -74.7640 47° Northeast 385 443 11,700 -1,263 Descending FlightAware ADS-B
Thu 11:20:49 AM 40.0620 -74.6970 48° Northeast 370 426 10,900 -944 Descending FlightAware ADS-B
Thu 11:21:40 AM 40.1160 -74.6190 48° Northeast 331 381 10,300 -462 Descending FlightAware ADS-B
Thu 11:22:20 AM 40.1574 -74.5598 48° Northeast 316 364 10,200 -95 Descending FlightAware ADS-B
Thu 11:22:43 AM 40.1796 -74.5279 48° Northeast 318 366 10,200  Level FlightAware ADS-B
Thu 11:22:52 AM 40.1892 -74.5140 48° Northeast 318 366 10,200  Level FlightAware ADS-B
Thu 11:23:04 AM 40.2006 -74.4977 48° Northeast 318 366 10,200  Level FlightAware ADS-B
Thu 11:23:31 AM 40.2290 -74.4613 44° Northeast 316 364 10,200  Level FlightAware ADS-B
Thu 11:23:36 AM 40.2338 -74.4553 44° Northeast 317 365 10,200  Level FlightAware ADS-B
Thu 11:24:06 AM 40.2661 -74.4146 44° Northeast 318 366 10,200 -100 Level FlightAware ADS-B
Thu 11:24:36 AM 40.2979 -74.3743 44° Northeast 314 361 10,100 -333 Descending FlightAware ADS-B
Thu 11:24:42 AM 40.3043 -74.3664 43° Northeast 312 359 10,000 -1,412 Descending FlightAware ADS-B
Thu 11:24:53 AM 40.3163 -74.3532 40° Northeast 310 357 9,700 -1,615 Descending FlightAware ADS-B
Thu 11:25:08 AM 40.3335 -74.3356 38° Northeast 310 357 9,300 -1,400 Descending FlightAware ADS-B
Thu 11:25:23 AM 40.3504 -74.3182 38° Northeast 305 351 9,000 -1,355 Descending FlightAware ADS-B
Thu 11:25:39 AM 40.3675 -74.3004 38° Northeast 304 350 8,600 -1,500 Descending FlightAware ADS-B
Thu 11:25:55 AM 40.3857 -74.2814 38° Northeast 302 348 8,200 -1,235 Descending FlightAware ADS-B
Thu 11:26:13 AM 40.4046 -74.2618 38° Northeast 298 343 7,900 -1,263 Descending FlightAware ADS-B
Thu 11:26:33 AM 40.4261 -74.2396 38° Northeast 296 341 7,400 -1,024 Descending FlightAware ADS-B
Thu 11:26:54 AM 40.4484 -74.2163 38° Northeast 294 338 7,200 -500 Descending FlightAware ADS-B
Thu 11:27:09 AM 40.4646 -74.1995 38° Northeast 295 339 7,100  Descending FlightAware ADS-B
Thu 11:27:24 AM 40.4808 -74.1826 38° Northeast 296 341 7,200 -656 Climbing FlightAware ADS-B
Thu 11:28:13 AM 40.5320 -74.1290 39° Northeast 291 335 6,400 -1,068 Descending FlightAware ADS-B
Thu 11:28:37 AM 40.5530 -74.1080 37° Northeast 289 333 5,900 -1,418 Descending FlightAware ADS-B
Thu 11:29:08 AM 40.5930 -74.0790 29° Northeast 281 323 5,100 -1,556 Descending FlightAware ADS-B
Thu 11:29:31 AM 40.6236 -74.0729 North 278 320 4,500 -1,102 Descending FlightAware ADS-B
Thu 11:29:57 AM 40.6570 -74.0663 North 275 316 4,200 -439 Descending FlightAware ADS-B
Thu 11:30:12 AM 40.6762 -74.0625 North 270 311 4,200  Level FlightAware ADS-B
Thu 11:30:28 AM 40.6950 -74.0588 North 266 306 4,200  Level FlightAware ADS-B
Thu 11:30:43 AM 40.7134 -74.0553 North 264 304 4,200 -300 Level FlightAware ADS-B
Thu 11:30:48 AM 40.7192 -74.0538 11° North 263 303 4,100 -750 Descending FlightAware ADS-B
Thu 11:30:51 AM 40.7231 -74.0523 16° North 264 304 4,100 857 Level FlightAware ADS-B
Thu 11:30:55 AM 40.7283 -74.0493 24° Northeast 264 304 4,200 667 Climbing FlightAware ADS-B
Thu 11:31:00 AM 40.7330 -74.0457 30° Northeast 264 304 4,200  Level FlightAware ADS-B
Thu 11:31:16 AM 40.7493 -74.0300 36° Northeast 266 306 4,200  Level FlightAware ADS-B
Thu 11:31:33 AM 40.7655 -74.0134 38° Northeast 266 306 4,200  Level FlightAware ADS-B
Thu 11:31:48 AM 40.7802 -73.9984 38° Northeast 267 307 4,200  Level FlightAware ADS-B
Thu 11:32:03 AM 40.7949 -73.9832 38° Northeast 269 310 4,200  Level FlightAware ADS-B
Thu 11:32:19 AM 40.8106 -73.9672 38° Northeast 269 310 4,200  Level FlightAware ADS-B
Thu 11:32:35 AM 40.8263 -73.9512 38° Northeast 268 308 4,200 -545 Level FlightAware ADS-B
Thu 11:32:52 AM 40.8426 -73.9348 37° Northeast 267 307 3,900 -1,636 Descending FlightAware ADS-B
Thu 11:33:08 AM 40.8588 -73.9187 37° Northeast 267 307 3,300 -2,108 Descending FlightAware ADS-B
Thu 11:33:29 AM 40.8795 -73.8980 37° Northeast 264 304 2,600 -1,622 Descending FlightAware ADS-B
Thu 11:33:45 AM 40.8947 -73.8830 37° Northeast 264 304 2,300 -789 Descending FlightAware ADS-B
Thu 11:34:07 AM 40.9144 -73.8636 37° Northeast 253 291 2,100 -324 Descending FlightAware ADS-B
Thu 11:34:22 AM 40.9271 -73.8508 37° Northeast 213 245 2,100  Level FlightAware ADS-B
Thu 11:34:26 AM 40.9294 -73.8477 46° Northeast 207 238 2,100  Level FlightAware ADS-B
Thu 11:34:29 AM 40.9311 -73.8446 54° Northeast 203 234 2,100  Level FlightAware ADS-B
Thu 11:34:38 AM 40.9340 -73.8348 69° East 189 217 2,100  Level FlightAware ADS-B

Login

Don't have an account? Register now (free) for customized features, flight alerts, and more!